createdAt,value
2016-09-06T09:07:44.430Z,1019.5
2016-09-06T09:08:29.381Z,1019.48
2016-09-06T09:09:17.181Z,1019.55
2016-09-06T09:10:13.335Z,1019.53
2016-09-06T09:11:08.386Z,1019.52
2016-09-06T09:11:53.072Z,1019.52
2016-09-06T09:12:38.254Z,1019.53
2016-09-06T09:15:04.733Z,1019.46
2016-09-06T09:15:49.775Z,1019.48
2016-09-06T09:16:38.180Z,1019.48
2016-09-06T09:23:45.304Z,1019.41
2016-09-06T09:24:29.720Z,1019.42
2016-09-06T09:26:23.953Z,1019.46
2016-09-06T09:27:07.168Z,1019.44
2016-09-06T09:27:50.989Z,1019.45
2016-09-06T09:28:34.952Z,1019.47
2016-09-06T09:29:18.952Z,1019.44
2016-09-06T09:30:02.167Z,1019.41
2016-09-06T09:30:45.032Z,1019.4
2016-09-06T09:31:29.327Z,1019.44
2016-09-06T09:32:12.587Z,1019.41
2016-09-06T09:32:56.425Z,1019.41
2016-09-06T09:33:39.306Z,1019.39
2016-09-06T09:34:22.376Z,1019.37
2016-09-06T09:36:56.360Z,1019.42
2016-09-06T09:37:41.122Z,1019.38
2016-09-06T10:11:38.429Z,1019.54
2016-09-06T10:12:31.067Z,1019.56
2016-09-06T10:14:59.874Z,1019.55
2016-09-06T10:15:45.954Z,1019.54
2016-09-06T10:16:38.799Z,1019.58
2016-09-06T10:17:24.815Z,1019.56
2016-09-06T10:18:13.993Z,1019.59
2016-09-06T10:19:03.557Z,1019.58
2016-09-06T10:19:48.394Z,1019.6
2016-09-06T10:20:39.724Z,1019.6
2016-09-06T10:22:29.477Z,1019.58
2016-09-06T10:23:16.233Z,1019.54
2016-09-06T10:23:58.206Z,1019.53
2016-09-06T10:24:47.311Z,1019.55
2016-09-06T10:25:30.999Z,1019.55
2016-09-06T10:26:21.831Z,1019.51
2016-09-06T10:28:57.286Z,1019.48
2016-09-06T10:31:26.618Z,1019.51
2016-09-06T10:32:14.530Z,1019.48
2016-09-06T10:34:09.431Z,1019.49
2016-09-06T10:34:59.495Z,1019.46
2016-09-06T13:33:26.743Z,1017.87
2016-09-06T13:34:12.609Z,1017.86
2016-09-06T13:34:56.098Z,1017.92
2016-09-06T13:35:40.410Z,1017.92
2016-09-06T13:36:24.426Z,1017.91
2016-09-06T13:37:08.832Z,1017.86
2016-09-06T13:37:52.675Z,1017.9
2016-09-06T13:38:36.872Z,1017.91
2016-09-06T13:39:22.463Z,1017.86
2016-09-06T13:40:07.137Z,1017.85
2016-09-06T13:40:51.215Z,1017.83
2016-09-06T13:41:36.044Z,1017.82
2016-09-06T13:42:20.450Z,1017.82
2016-09-06T13:43:07.410Z,1017.81
2016-09-06T13:43:51.146Z,1017.86
2016-09-06T13:44:37.221Z,1017.82
2016-09-06T13:45:21.448Z,1017.77
2016-09-06T13:48:45.468Z,1017.69
2016-09-06T13:49:28.701Z,1017.71
2016-09-06T13:50:13.813Z,1017.67
2016-09-06T13:50:58.536Z,1017.65
2016-09-06T13:51:41.378Z,1017.64
2016-09-06T13:52:25.708Z,1017.6
2016-09-06T13:53:08.862Z,1017.63
2016-09-06T13:53:51.749Z,1017.61
2016-09-06T13:54:35.684Z,1017.58
2016-09-06T13:55:19.474Z,1017.58
2016-09-06T13:56:04.552Z,1017.55
2016-09-06T13:56:49.144Z,1017.51
2016-09-06T13:57:33.997Z,1017.57
2016-09-06T13:58:18.135Z,1017.53
2016-09-06T13:59:01.251Z,1017.54
2016-09-06T13:59:44.734Z,1017.55
2016-09-06T14:00:27.602Z,1017.54
2016-09-06T14:01:13.996Z,1017.54
2016-09-06T14:01:59.506Z,1017.52
2016-09-06T14:02:42.401Z,1017.51
2016-09-06T14:03:28.159Z,1017.5
2016-09-06T14:04:12.193Z,1017.47
2016-09-06T14:04:57.395Z,1017.48
2016-09-06T14:05:40.805Z,1017.45
2016-09-06T14:06:24.596Z,1017.45
2016-09-06T14:07:09.276Z,1017.42
2016-09-06T14:07:52.909Z,1017.39
2016-09-06T14:08:36.490Z,1017.38
2016-09-06T14:09:21.590Z,1017.41
2016-09-06T14:10:22.427Z,1017.37
2016-09-06T14:12:38.642Z,1017.38
2016-09-06T14:13:22.978Z,1017.35
2016-09-06T14:14:06.965Z,1017.35
2016-09-06T14:14:52.292Z,1017.36
2016-09-06T14:15:36.065Z,1017.33
2016-09-06T14:16:20.492Z,1017.36
2016-09-06T14:17:04.642Z,1017.34
2016-09-06T14:17:49.718Z,1017.37
2016-09-06T14:18:33.089Z,1017.35
2016-09-06T14:19:16.908Z,1017.32
2016-09-06T14:20:01.759Z,1017.28
2016-09-06T14:20:45.516Z,1017.3
2016-09-06T14:21:29.365Z,1017.29
2016-09-06T14:22:14.167Z,1017.3
2016-09-06T14:22:58.377Z,1017.27
2016-09-06T14:23:42.451Z,1017.28
2016-09-06T14:24:25.405Z,1017.23
2016-09-06T14:25:09.598Z,1017.26
2016-09-06T14:25:53.865Z,1017.23
2016-09-06T14:28:16.038Z,1017.21
2016-09-06T14:28:58.908Z,1017.18
2016-09-06T14:29:43.608Z,1017.18
2016-09-06T14:30:27.558Z,1017.18
2016-09-06T14:31:12.677Z,1017.16
2016-09-06T14:31:56.510Z,1017.14
2016-09-06T14:34:29.660Z,1017.07
2016-09-06T14:35:13.655Z,1017.06
2016-09-06T14:37:29.491Z,1016.99
2016-09-06T14:38:13.811Z,1017.02
2016-09-06T14:38:58.040Z,1017
2016-09-06T14:39:42.128Z,1016.98
2016-09-06T14:40:26.259Z,1016.98
2016-09-06T14:41:11.743Z,1016.96
2016-09-06T14:41:55.903Z,1016.94
2016-09-06T14:44:30.377Z,1016.95
2016-09-06T14:45:15.182Z,1016.89
2016-09-06T14:46:14.815Z,1016.88
2016-09-06T14:47:01.110Z,1016.87
2016-09-06T14:47:45.326Z,1016.85
2016-09-06T14:48:29.912Z,1016.84
2016-09-06T14:49:14.981Z,1016.81
2016-09-06T14:49:58.984Z,1016.82
2016-09-06T14:50:42.649Z,1016.8
2016-09-06T14:51:26.817Z,1016.8
2016-09-06T14:52:10.868Z,1016.77
2016-09-06T14:52:54.455Z,1016.75
2016-09-06T14:53:38.853Z,1016.75
2016-09-06T14:54:22.471Z,1016.71
2016-09-06T14:55:05.819Z,1016.73
2016-09-06T14:55:49.314Z,1016.72
2016-09-06T14:56:32.911Z,1016.68
2016-09-06T14:57:16.629Z,1016.72
2016-09-06T14:57:59.641Z,1016.68
2016-09-06T14:58:44.449Z,1016.69
2016-09-06T14:59:28.884Z,1016.67
2016-09-06T15:00:13.728Z,1016.65
2016-09-06T15:00:57.249Z,1016.71
2016-09-06T15:01:41.122Z,1016.7
2016-09-06T15:02:25.589Z,1016.7
2016-09-06T15:03:10.763Z,1016.7
2016-09-06T15:03:55.680Z,1016.68
2016-09-06T15:04:39.737Z,1016.74
2016-09-06T15:05:23.984Z,1016.73
2016-09-06T15:06:06.893Z,1016.75
2016-09-06T15:06:50.312Z,1016.72
2016-09-06T15:07:34.704Z,1016.7
2016-09-06T15:08:18.961Z,1016.69
2016-09-06T15:09:02.412Z,1016.7
2016-09-06T15:09:46.847Z,1016.68
2016-09-06T15:10:30.712Z,1016.61
2016-09-06T15:11:15.147Z,1016.63
2016-09-06T15:11:58.939Z,1016.64
2016-09-06T15:12:42.529Z,1016.62
2016-09-06T15:13:26.644Z,1016.63
2016-09-06T15:14:11.046Z,1016.6
2016-09-06T15:14:55.289Z,1016.58
2016-09-06T15:15:38.682Z,1016.59
2016-09-06T15:16:21.552Z,1016.59
2016-09-06T15:17:05.461Z,1016.58
2016-09-06T15:17:48.835Z,1016.62
2016-09-06T15:18:33.851Z,1016.6
2016-09-06T15:19:16.717Z,1016.62
2016-09-06T15:20:01.206Z,1016.61
2016-09-06T15:20:45.527Z,1016.65
2016-09-06T15:23:01.899Z,1016.6
2016-09-06T15:23:43.521Z,1016.61
2016-09-06T15:24:25.917Z,1016.61
2016-09-06T15:25:09.230Z,1016.56
2016-09-06T15:25:54.503Z,1016.6
2016-09-06T15:26:38.015Z,1016.57
2016-09-06T15:27:22.590Z,1016.55
2016-09-06T15:28:05.849Z,1016.62
2016-09-06T15:28:48.931Z,1016.58
2016-09-06T15:29:32.044Z,1016.59
2016-09-06T15:30:15.094Z,1016.6
2016-09-06T15:30:59.045Z,1016.6
2016-09-06T15:31:42.392Z,1016.6
